Time,TemperatureF,DewpointF,PressureIn,WindDirection,WindDirectionDegrees,WindSpeedMPH,WindSpeedGustMPH,Humidity,HourlyPrecipIn,Conditions,Clouds,dailyrainin,SoftwareType,DateUTC
2013-01-23 00:14:00,31.3,18.2,30.36,ENE,64,0.0,0.0,58,0.00,,,0.00,VWS V14.01,2013-01-23 06:14:00,
2013-01-23 00:29:00,30.1,18.7,30.36,ENE,64,0.0,0.0,62,0.00,,,0.00,VWS V14.01,2013-01-23 06:29:00,
2013-01-23 00:44:00,29.5,19.2,30.35,ENE,64,0.0,0.0,65,0.00,,,0.00,VWS V14.01,2013-01-23 06:44:00,
2013-01-23 00:59:00,29.1,18.8,30.36,ENE,63,0.0,0.0,65,0.00,,,0.00,VWS V14.01,2013-01-23 06:59:00,
2013-01-23 01:14:00,29.4,19.1,30.35,East,93,0.0,1.0,65,0.00,,,0.00,VWS V14.01,2013-01-23 07:14:00,
2013-01-23 01:29:00,29.3,19.0,30.36,East,90,0.0,1.0,65,0.00,,,0.00,VWS V14.01,2013-01-23 07:29:00,
2013-01-23 01:44:00,29.1,19.2,30.36,East,91,0.0,0.0,66,0.00,,,0.00,VWS V14.01,2013-01-23 07:44:00,
2013-01-23 01:59:00,28.7,19.1,30.36,East,90,0.0,0.0,67,0.00,,,0.00,VWS V14.01,2013-01-23 07:59:00,
2013-01-23 02:14:00,28.3,19.5,30.36,East,91,0.0,1.0,69,0.00,,,0.00,VWS V14.01,2013-01-23 08:14:00,
2013-01-23 02:29:00,28.1,19.3,30.36,East,90,0.0,0.0,69,0.00,,,0.00,VWS V14.01,2013-01-23 08:29:00,
2013-01-23 02:44:00,27.5,19.4,30.36,East,91,0.0,0.0,71,0.00,,,0.00,VWS V14.01,2013-01-23 08:44:00,
2013-01-23 02:59:00,28.1,19.3,30.35,East,98,0.0,1.0,69,0.00,,,0.00,VWS V14.01,2013-01-23 08:59:00,
2013-01-23 03:14:00,27.7,19.2,30.35,East,98,0.0,1.0,70,0.00,,,0.00,VWS V14.01,2013-01-23 09:14:00,
2013-01-23 03:29:00,27.2,19.7,30.35,East,97,0.0,0.0,73,0.00,,,0.00,VWS V14.01,2013-01-23 09:29:00,
2013-01-23 03:44:00,27.0,19.2,30.35,East,98,0.0,0.0,72,0.00,,,0.00,VWS V14.01,2013-01-23 09:44:00,
2013-01-23 03:59:00,26.9,19.1,30.34,East,98,0.0,0.0,72,0.00,,,0.00,VWS V14.01,2013-01-23 09:59:00,
2013-01-23 04:14:00,26.9,19.4,30.34,East,97,0.0,0.0,73,0.00,,,0.00,VWS V14.01,2013-01-23 10:14:00,
2013-01-23 04:29:00,26.7,19.2,30.34,East,97,0.0,1.0,73,0.00,,,0.00,VWS V14.01,2013-01-23 10:29:00,
2013-01-23 04:44:00,26.8,19.3,30.34,ESE,107,0.0,2.0,73,0.00,,,0.00,VWS V14.01,2013-01-23 10:44:00,
2013-01-23 04:59:00,28.3,19.8,30.34,East,94,0.0,3.0,70,0.00,,,0.00,VWS V14.01,2013-01-23 10:59:00,
2013-01-23 05:14:00,28.2,19.7,30.34,ESE,113,0.0,1.0,70,0.00,,,0.00,VWS V14.01,2013-01-23 11:14:00,
2013-01-23 05:29:00,28.7,19.8,30.34,ESE,120,0.0,2.0,69,0.00,,,0.00,VWS V14.01,2013-01-23 11:29:00,
2013-01-23 05:44:00,29.0,20.1,30.34,ESE,121,0.0,3.0,69,0.00,,,0.00,VWS V14.01,2013-01-23 11:44:00,
2013-01-23 05:59:00,28.8,19.9,30.35,ESE,110,0.0,2.0,69,0.00,,,0.00,VWS V14.01,2013-01-23 11:59:00,
2013-01-23 06:14:00,29.2,20.3,30.34,ESE,113,1.0,4.0,69,0.00,,,0.00,VWS V14.01,2013-01-23 12:14:00,
2013-01-23 06:29:00,29.4,20.5,30.34,ESE,105,2.0,3.0,69,0.00,,,0.00,VWS V14.01,2013-01-23 12:29:00,
2013-01-23 06:44:00,29.5,20.6,30.34,East,93,1.0,2.0,69,0.00,,,0.00,VWS V14.01,2013-01-23 12:44:00,
2013-01-23 06:59:00,29.6,20.7,30.34,East,101,1.0,3.0,69,0.00,,,0.00,VWS V14.01,2013-01-23 12:59:00,
2013-01-23 07:14:00,29.9,21.0,30.34,ESE,113,1.0,2.0,69,0.00,,,0.00,VWS V14.01,2013-01-23 13:14:00,
2013-01-23 07:29:00,30.8,21.9,30.33,ESE,103,0.0,5.0,69,0.00,,,0.00,VWS V14.01,2013-01-23 13:29:00,
2013-01-23 07:44:00,31.9,22.5,30.34,ESE,120,0.0,5.0,68,0.00,,,0.00,VWS V14.01,2013-01-23 13:44:00,
2013-01-23 07:59:00,32.7,23.0,30.34,ESE,102,1.0,3.0,67,0.00,,,0.00,VWS V14.01,2013-01-23 13:59:00,
2013-01-23 08:14:00,33.5,23.4,30.34,East,92,1.0,4.0,66,0.00,,,0.00,VWS V14.01,2013-01-23 14:14:00,
2013-01-23 08:29:00,34.3,24.1,30.34,East,95,2.0,5.0,66,0.00,,,0.00,VWS V14.01,2013-01-23 14:29:00,
2013-01-23 08:44:00,34.9,24.3,30.34,SE,126,1.0,3.0,65,0.00,,,0.00,VWS V14.01,2013-01-23 14:44:00,
2013-01-23 08:59:00,35.5,24.9,30.34,ESE,112,2.0,4.0,65,0.00,,,0.00,VWS V14.01,2013-01-23 14:59:00,
2013-01-23 09:14:00,36.2,25.2,30.34,SSE,147,0.0,5.0,64,0.00,,,0.00,VWS V14.01,2013-01-23 15:14:00,
2013-01-23 09:29:00,37.4,26.4,30.34,South,174,2.0,4.0,64,0.00,,,0.00,VWS V14.01,2013-01-23 15:29:00,
2013-01-23 09:44:00,38.8,27.3,30.35,ESE,103,0.0,3.0,63,0.00,,,0.00,VWS V14.01,2013-01-23 15:44:00,
2013-01-23 09:59:00,40.1,27.8,30.34,ESE,119,1.0,2.0,61,0.00,,,0.00,VWS V14.01,2013-01-23 15:59:00,
2013-01-23 10:14:00,41.1,28.3,30.34,ESE,114,2.0,4.0,60,0.00,,,0.00,VWS V14.01,2013-01-23 16:14:00,
2013-01-23 10:29:00,42.2,28.9,30.33,East,97,2.0,6.0,59,0.00,,,0.00,VWS V14.01,2013-01-23 16:29:00,
2013-01-23 10:44:00,43.5,30.1,30.33,South,172,0.0,3.0,59,0.00,,,0.00,VWS V14.01,2013-01-23 16:44:00,
2013-01-23 10:59:00,44.4,30.6,30.33,East,92,1.0,3.0,58,0.00,,,0.00,VWS V14.01,2013-01-23 16:59:00,
2013-01-23 11:14:00,44.9,31.9,30.32,East,86,1.0,4.0,60,0.00,,,0.00,VWS V14.01,2013-01-23 17:14:00,
2013-01-23 11:29:00,45.8,32.3,30.30,SSE,150,1.0,4.0,59,0.00,,,0.00,VWS V14.01,2013-01-23 17:29:00,
2013-01-23 11:44:00,46.0,32.9,30.30,SE,145,1.0,4.0,60,0.00,,,0.00,VWS V14.01,2013-01-23 17:44:00,
2013-01-23 11:59:00,45.8,33.1,30.30,SSW,201,2.0,3.0,61,0.00,,,0.00,VWS V14.01,2013-01-23 17:59:00,
2013-01-23 12:14:00,45.6,32.5,30.29,SSE,155,0.0,4.0,60,0.00,,,0.00,VWS V14.01,2013-01-23 18:14:00,
2013-01-23 12:29:00,45.6,32.5,30.28,ESE,118,1.0,2.0,60,0.00,,,0.00,VWS V14.01,2013-01-23 18:29:00,
2013-01-23 12:44:00,46.2,33.1,30.27,East,98,2.0,3.0,60,0.00,,,0.00,VWS V14.01,2013-01-23 18:44:00,
2013-01-23 12:59:00,47.3,33.7,30.25,ESE,110,2.0,3.0,59,0.00,,,0.00,VWS V14.01,2013-01-23 18:59:00,
2013-01-23 13:14:00,48.2,33.7,30.24,SSW,201,2.0,4.0,57,0.00,,,0.00,VWS V14.01,2013-01-23 19:14:00,
2013-01-23 13:29:00,49.4,34.4,30.23,SE,124,1.0,4.0,56,0.00,,,0.00,VWS V14.01,2013-01-23 19:29:00,
2013-01-23 13:44:00,50.8,34.8,30.23,South,179,0.0,5.0,54,0.00,,,0.00,VWS V14.01,2013-01-23 19:44:00,
2013-01-23 13:59:00,51.8,35.7,30.23,ESE,123,1.0,6.0,54,0.00,,,0.00,VWS V14.01,2013-01-23 19:59:00,
2013-01-23 14:14:00,52.6,36.0,30.23,SSW,211,3.0,5.0,53,0.00,,,0.00,VWS V14.01,2013-01-23 20:14:00,
2013-01-23 14:29:00,53.0,35.9,30.22,SSE,165,2.0,6.0,52,0.00,,,0.00,VWS V14.01,2013-01-23 20:29:00,
2013-01-23 14:44:00,53.4,36.2,30.22,SW,228,3.0,6.0,52,0.00,,,0.00,VWS V14.01,2013-01-23 20:44:00,
2013-01-23 14:59:00,53.8,36.1,30.22,WSW,255,0.0,5.0,51,0.00,,,0.00,VWS V14.01,2013-01-23 20:59:00,
2013-01-23 15:14:00,53.9,36.7,30.22,South,172,2.0,5.0,52,0.00,,,0.00,VWS V14.01,2013-01-23 21:14:00,
2013-01-23 15:29:00,53.7,37.0,30.22,SW,236,3.0,8.0,53,0.00,,,0.00,VWS V14.01,2013-01-23 21:29:00,
2013-01-23 15:44:00,54.0,37.3,30.21,SSE,154,1.0,6.0,53,0.00,,,0.00,VWS V14.01,2013-01-23 21:44:00,
2013-01-23 15:59:00,54.6,37.8,30.21,ESE,116,3.0,5.0,53,0.00,,,0.00,VWS V14.01,2013-01-23 21:59:00,
2013-01-23 16:14:00,54.6,38.3,30.20,South,186,2.0,6.0,54,0.00,,,0.00,VWS V14.01,2013-01-23 22:14:00,
2013-01-23 16:29:00,54.8,40.8,30.20,SW,228,3.0,7.0,59,0.00,,,0.00,VWS V14.01,2013-01-23 22:29:00,
2013-01-23 16:44:00,54.0,40.9,30.20,South,187,3.0,6.0,61,0.00,,,0.00,VWS V14.01,2013-01-23 22:44:00,
2013-01-23 16:59:00,53.4,41.5,30.20,SW,225,2.0,5.0,64,0.00,,,0.00,VWS V14.01,2013-01-23 22:59:00,
2013-01-23 17:14:00,52.8,41.4,30.19,SSW,207,0.0,4.0,65,0.00,,,0.00,VWS V14.01,2013-01-23 23:14:00,
2013-01-23 17:29:00,51.8,41.2,30.19,SW,232,0.0,3.0,67,0.00,,,0.00,VWS V14.01,2013-01-23 23:29:00,
2013-01-23 17:44:00,51.0,41.2,30.19,South,188,0.0,2.0,69,0.00,,,0.00,VWS V14.01,2013-01-23 23:44:00,
2013-01-23 17:59:00,50.3,41.3,30.18,SSW,198,0.0,2.0,71,0.00,,,0.00,VWS V14.01,2013-01-23 23:59:00,
2013-01-23 18:14:00,49.8,41.5,30.18,SSE,162,0.0,3.0,73,0.00,,,0.00,VWS V14.01,2013-01-24 00:14:00,
2013-01-23 18:29:00,49.3,41.4,30.18,SSW,198,0.0,2.0,74,0.00,,,0.00,VWS V14.01,2013-01-24 00:29:00,
2013-01-23 18:44:00,49.2,42.0,30.18,SW,226,3.0,4.0,76,0.00,,,0.00,VWS V14.01,2013-01-24 00:44:00,
2013-01-23 18:59:00,49.2,42.0,30.19,SW,222,0.0,3.0,76,0.00,,,0.00,VWS V14.01,2013-01-24 00:59:00,
2013-01-23 19:14:00,47.8,41.3,30.19,SW,222,0.0,0.0,78,0.00,,,0.00,VWS V14.01,2013-01-24 01:14:00,
2013-01-23 19:29:00,46.9,41.1,30.19,SW,222,0.0,0.0,80,0.00,,,0.00,VWS V14.01,2013-01-24 01:29:00,
2013-01-23 19:44:00,46.5,41.0,30.19,SW,222,0.0,0.0,81,0.00,,,0.00,VWS V14.01,2013-01-24 01:44:00,
2013-01-23 19:59:00,45.5,40.3,30.19,SW,222,0.0,0.0,82,0.00,,,0.00,VWS V14.01,2013-01-24 01:59:00,
2013-01-23 20:14:00,44.0,39.5,30.20,SW,223,0.0,0.0,84,0.00,,,0.00,VWS V14.01,2013-01-24 02:14:00,
2013-01-23 20:29:00,43.2,39.9,30.19,SW,222,0.0,0.0,88,0.00,,,0.00,VWS V14.01,2013-01-24 02:29:00,
2013-01-23 20:44:00,42.9,39.6,30.20,SW,223,0.0,0.0,88,0.00,,,0.00,VWS V14.01,2013-01-24 02:44:00,
2013-01-23 20:59:00,42.2,38.9,30.20,SW,222,0.0,0.0,88,0.00,,,0.00,VWS V14.01,2013-01-24 02:59:00,
2013-01-23 21:14:00,41.4,38.1,30.21,SW,223,0.0,0.0,88,0.00,,,0.00,VWS V14.01,2013-01-24 03:14:00,
2013-01-23 21:29:00,40.9,38.2,30.21,SW,222,0.0,0.0,90,0.00,,,0.00,VWS V14.01,2013-01-24 03:29:00,
2013-01-23 21:44:00,40.7,38.0,30.21,SW,222,0.0,0.0,90,0.00,,,0.00,VWS V14.01,2013-01-24 03:44:00,
2013-01-23 21:59:00,40.7,38.3,30.21,SW,221,0.0,0.0,91,0.00,,,0.00,VWS V14.01,2013-01-24 03:59:00,
2013-01-23 22:14:00,41.0,38.3,30.21,SW,222,0.0,0.0,90,0.00,,,0.00,VWS V14.01,2013-01-24 04:14:00,
2013-01-23 22:29:00,41.3,38.9,30.22,SW,223,0.0,0.0,91,0.00,,,0.00,VWS V14.01,2013-01-24 04:29:00,
2013-01-23 22:44:00,41.6,39.2,30.22,SW,222,0.0,0.0,91,0.00,,,0.00,VWS V14.01,2013-01-24 04:44:00,
2013-01-23 22:59:00,42.0,39.6,30.21,SW,222,0.0,0.0,91,0.00,,,0.00,VWS V14.01,2013-01-24 04:59:00,
2013-01-23 23:14:00,42.1,39.7,30.21,SW,223,0.0,0.0,91,0.00,,,0.00,VWS V14.01,2013-01-24 05:14:00,
2013-01-23 23:29:00,42.2,39.8,30.21,SW,222,0.0,0.0,91,0.00,,,0.00,VWS V14.01,2013-01-24 05:29:00,
2013-01-23 23:44:00,42.6,40.4,30.22,SW,222,0.0,0.0,92,0.00,,,0.00,VWS V14.01,2013-01-24 05:44:00,
2013-01-23 23:59:00,42.8,40.6,30.22,SW,222,0.0,0.0,92,0.00,,,0.00,VWS V14.01,2013-01-24 05:59:00,